sensor_id;sensor_type;location;lat;lon;timestamp;P1;durP1;ratioP1;P2;durP2;ratioP2
11046;SDS011;5576;50.008;10.596;2023-02-22T00:00:10;48.17;;;36.85;;
11046;SDS011;5576;50.008;10.596;2023-02-22T00:02:58;35.47;;;27.73;;
11046;SDS011;5576;50.008;10.596;2023-02-22T00:05:25;25.47;;;18.50;;
11046;SDS011;5576;50.008;10.596;2023-02-22T00:07:52;33.15;;;25.80;;
11046;SDS011;5576;50.008;10.596;2023-02-22T00:10:21;17.73;;;13.93;;
11046;SDS011;5576;50.008;10.596;2023-02-22T00:12:48;32.23;;;23.63;;
11046;SDS011;5576;50.008;10.596;2023-02-22T00:15:17;58.25;;;41.67;;
11046;SDS011;5576;50.008;10.596;2023-02-22T00:17:45;47.08;;;33.22;;
11046;SDS011;5576;50.008;10.596;2023-02-22T00:20:11;23.73;;;16.42;;
11046;SDS011;5576;50.008;10.596;2023-02-22T00:22:40;33.22;;;23.05;;
11046;SDS011;5576;50.008;10.596;2023-02-22T00:25:07;26.98;;;19.27;;
11046;SDS011;5576;50.008;10.596;2023-02-22T00:27:34;51.63;;;36.67;;
11046;SDS011;5576;50.008;10.596;2023-02-22T00:30:01;56.90;;;41.53;;
11046;SDS011;5576;50.008;10.596;2023-02-22T00:32:29;49.15;;;32.38;;
11046;SDS011;5576;50.008;10.596;2023-02-22T00:34:56;34.72;;;23.45;;
11046;SDS011;5576;50.008;10.596;2023-02-22T00:37:23;11.73;;;8.70;;
11046;SDS011;5576;50.008;10.596;2023-02-22T00:39:49;8.38;;;7.47;;
11046;SDS011;5576;50.008;10.596;2023-02-22T00:42:16;5.80;;;4.40;;
11046;SDS011;5576;50.008;10.596;2023-02-22T00:44:43;6.78;;;5.10;;
11046;SDS011;5576;50.008;10.596;2023-02-22T00:47:10;7.43;;;4.82;;
11046;SDS011;5576;50.008;10.596;2023-02-22T00:49:36;9.40;;;7.13;;
11046;SDS011;5576;50.008;10.596;2023-02-22T00:52:03;8.20;;;7.40;;
11046;SDS011;5576;50.008;10.596;2023-02-22T00:54:29;4.93;;;4.43;;
11046;SDS011;5576;50.008;10.596;2023-02-22T00:56:56;4.22;;;3.40;;
11046;SDS011;5576;50.008;10.596;2023-02-22T00:59:22;4.60;;;4.10;;
11046;SDS011;5576;50.008;10.596;2023-02-22T01:01:48;5.20;;;3.33;;
11046;SDS011;5576;50.008;10.596;2023-02-22T01:04:14;20.02;;;16.83;;
11046;SDS011;5576;50.008;10.596;2023-02-22T01:06:40;11.25;;;10.05;;
11046;SDS011;5576;50.008;10.596;2023-02-22T01:09:06;9.33;;;7.93;;
11046;SDS011;5576;50.008;10.596;2023-02-22T01:11:31;5.28;;;4.75;;
11046;SDS011;5576;50.008;10.596;2023-02-22T01:13:59;7.60;;;6.80;;
11046;SDS011;5576;50.008;10.596;2023-02-22T01:16:25;9.73;;;8.85;;
11046;SDS011;5576;50.008;10.596;2023-02-22T01:18:51;9.30;;;8.30;;
11046;SDS011;5576;50.008;10.596;2023-02-22T01:21:17;8.73;;;7.83;;
11046;SDS011;5576;50.008;10.596;2023-02-22T01:23:44;7.03;;;5.22;;
11046;SDS011;5576;50.008;10.596;2023-02-22T01:26:10;7.03;;;6.33;;
11046;SDS011;5576;50.008;10.596;2023-02-22T01:28:37;22.38;;;18.27;;
11046;SDS011;5576;50.008;10.596;2023-02-22T01:31:03;30.73;;;27.52;;
11046;SDS011;5576;50.008;10.596;2023-02-22T01:33:30;12.38;;;11.07;;
11046;SDS011;5576;50.008;10.596;2023-02-22T01:35:56;5.63;;;5.13;;
11046;SDS011;5576;50.008;10.596;2023-02-22T01:38:23;6.85;;;6.03;;
11046;SDS011;5576;50.008;10.596;2023-02-22T01:40:50;5.85;;;5.22;;
11046;SDS011;5576;50.008;10.596;2023-02-22T01:43:22;11.27;;;9.07;;
11046;SDS011;5576;50.008;10.596;2023-02-22T01:45:54;8.05;;;6.75;;
11046;SDS011;5576;50.008;10.596;2023-02-22T01:48:26;6.40;;;5.63;;
11046;SDS011;5576;50.008;10.596;2023-02-22T01:53:36;6.80;;;5.40;;
11046;SDS011;5576;50.008;10.596;2023-02-22T01:56:07;4.53;;;3.72;;
11046;SDS011;5576;50.008;10.596;2023-02-22T01:58:34;4.43;;;3.83;;
11046;SDS011;5576;50.008;10.596;2023-02-22T02:01:02;5.22;;;4.10;;
11046;SDS011;5576;50.008;10.596;2023-02-22T02:03:29;4.35;;;3.20;;
11046;SDS011;5576;50.008;10.596;2023-02-22T02:06:00;3.88;;;3.20;;
11046;SDS011;5576;50.008;10.596;2023-02-22T02:08:35;4.00;;;3.70;;
11046;SDS011;5576;50.008;10.596;2023-02-22T02:11:23;3.63;;;2.90;;
11046;SDS011;5576;50.008;10.596;2023-02-22T02:13:50;4.72;;;3.30;;
11046;SDS011;5576;50.008;10.596;2023-02-22T02:16:19;4.70;;;3.38;;
11046;SDS011;5576;50.008;10.596;2023-02-22T02:18:47;3.47;;;2.97;;
11046;SDS011;5576;50.008;10.596;2023-02-22T02:26:53;7.23;;;4.47;;
11046;SDS011;5576;50.008;10.596;2023-02-22T02:29:38;9.02;;;5.20;;
11046;SDS011;5576;50.008;10.596;2023-02-22T02:35:50;9.35;;;5.40;;
11046;SDS011;5576;50.008;10.596;2023-02-22T02:38:29;10.32;;;5.38;;
11046;SDS011;5576;50.008;10.596;2023-02-22T02:41:11;9.98;;;5.70;;
11046;SDS011;5576;50.008;10.596;2023-02-22T02:49:01;9.10;;;5.53;;
11046;SDS011;5576;50.008;10.596;2023-02-22T02:51:33;6.82;;;5.50;;
11046;SDS011;5576;50.008;10.596;2023-02-22T02:54:02;6.75;;;4.95;;
11046;SDS011;5576;50.008;10.596;2023-02-22T02:56:29;7.30;;;4.72;;
11046;SDS011;5576;50.008;10.596;2023-02-22T02:58:55;5.45;;;4.60;;
11046;SDS011;5576;50.008;10.596;2023-02-22T03:07:08;9.52;;;6.22;;
11046;SDS011;5576;50.008;10.596;2023-02-22T03:13:08;8.38;;;5.20;;
11046;SDS011;5576;50.008;10.596;2023-02-22T03:15:59;5.90;;;4.82;;
11046;SDS011;5576;50.008;10.596;2023-02-22T03:21:33;8.02;;;5.30;;
11046;SDS011;5576;50.008;10.596;2023-02-22T03:26:42;7.93;;;5.60;;
11046;SDS011;5576;50.008;10.596;2023-02-22T03:29:13;7.83;;;5.70;;
11046;SDS011;5576;50.008;10.596;2023-02-22T03:31:43;8.55;;;5.85;;
11046;SDS011;5576;50.008;10.596;2023-02-22T03:34:19;9.35;;;5.95;;
11046;SDS011;5576;50.008;10.596;2023-02-22T03:36:49;9.50;;;7.05;;
11046;SDS011;5576;50.008;10.596;2023-02-22T03:39:20;9.75;;;7.82;;
11046;SDS011;5576;50.008;10.596;2023-02-22T03:41:56;10.63;;;8.27;;
11046;SDS011;5576;50.008;10.596;2023-02-22T03:44:28;12.25;;;7.30;;
11046;SDS011;5576;50.008;10.596;2023-02-22T03:47:00;13.43;;;11.55;;
11046;SDS011;5576;50.008;10.596;2023-02-22T03:52:18;8.02;;;6.15;;
11046;SDS011;5576;50.008;10.596;2023-02-22T03:54:48;8.73;;;6.20;;
11046;SDS011;5576;50.008;10.596;2023-02-22T03:57:21;7.65;;;6.22;;
11046;SDS011;5576;50.008;10.596;2023-02-22T03:59:57;9.07;;;7.10;;
11046;SDS011;5576;50.008;10.596;2023-02-22T04:02:23;8.52;;;7.63;;
11046;SDS011;5576;50.008;10.596;2023-02-22T04:04:49;17.85;;;16.33;;
11046;SDS011;5576;50.008;10.596;2023-02-22T04:07:15;15.13;;;12.45;;
11046;SDS011;5576;50.008;10.596;2023-02-22T04:09:42;9.70;;;7.70;;
11046;SDS011;5576;50.008;10.596;2023-02-22T04:12:08;7.28;;;6.40;;
11046;SDS011;5576;50.008;10.596;2023-02-22T04:14:49;6.32;;;5.72;;
11046;SDS011;5576;50.008;10.596;2023-02-22T04:17:15;7.20;;;6.20;;
11046;SDS011;5576;50.008;10.596;2023-02-22T04:19:41;7.03;;;5.70;;
11046;SDS011;5576;50.008;10.596;2023-02-22T04:22:10;6.50;;;5.90;;
11046;SDS011;5576;50.008;10.596;2023-02-22T04:24:36;7.32;;;6.63;;
11046;SDS011;5576;50.008;10.596;2023-02-22T04:27:02;6.95;;;6.32;;
11046;SDS011;5576;50.008;10.596;2023-02-22T04:29:30;7.32;;;6.63;;
11046;SDS011;5576;50.008;10.596;2023-02-22T04:31:55;7.90;;;7.10;;
11046;SDS011;5576;50.008;10.596;2023-02-22T04:34:21;7.10;;;6.07;;
11046;SDS011;5576;50.008;10.596;2023-02-22T04:36:47;6.38;;;5.72;;
11046;SDS011;5576;50.008;10.596;2023-02-22T04:39:14;7.47;;;5.90;;
11046;SDS011;5576;50.008;10.596;2023-02-22T04:41:40;7.40;;;5.80;;
11046;SDS011;5576;50.008;10.596;2023-02-22T04:44:07;7.43;;;5.85;;
11046;SDS011;5576;50.008;10.596;2023-02-22T04:46:33;8.02;;;6.40;;
11046;SDS011;5576;50.008;10.596;2023-02-22T04:48:59;7.53;;;6.38;;
11046;SDS011;5576;50.008;10.596;2023-02-22T04:51:28;8.35;;;6.85;;
11046;SDS011;5576;50.008;10.596;2023-02-22T04:53:58;7.03;;;5.70;;
11046;SDS011;5576;50.008;10.596;2023-02-22T04:56:24;6.72;;;5.90;;
11046;SDS011;5576;50.008;10.596;2023-02-22T04:58:50;6.80;;;6.00;;
11046;SDS011;5576;50.008;10.596;2023-02-22T05:01:15;6.30;;;5.70;;
11046;SDS011;5576;50.008;10.596;2023-02-22T05:03:42;7.32;;;6.07;;
11046;SDS011;5576;50.008;10.596;2023-02-22T05:06:07;6.22;;;5.63;;
11046;SDS011;5576;50.008;10.596;2023-02-22T05:08:34;6.47;;;5.85;;
11046;SDS011;5576;50.008;10.596;2023-02-22T05:10:59;6.10;;;5.50;;
11046;SDS011;5576;50.008;10.596;2023-02-22T05:13:25;6.30;;;5.70;;
11046;SDS011;5576;50.008;10.596;2023-02-22T05:15:51;6.60;;;5.95;;
11046;SDS011;5576;50.008;10.596;2023-02-22T05:18:17;7.53;;;6.32;;
11046;SDS011;5576;50.008;10.596;2023-02-22T05:20:43;7.73;;;6.37;;
11046;SDS011;5576;50.008;10.596;2023-02-22T05:23:08;6.90;;;6.15;;
11046;SDS011;5576;50.008;10.596;2023-02-22T05:25:34;6.83;;;6.10;;
11046;SDS011;5576;50.008;10.596;2023-02-22T05:28:01;6.90;;;6.20;;
11046;SDS011;5576;50.008;10.596;2023-02-22T05:30:30;6.88;;;6.28;;
11046;SDS011;5576;50.008;10.596;2023-02-22T05:32:58;8.63;;;7.60;;
11046;SDS011;5576;50.008;10.596;2023-02-22T05:35:24;9.50;;;8.52;;
11046;SDS011;5576;50.008;10.596;2023-02-22T05:37:52;8.50;;;7.70;;
11046;SDS011;5576;50.008;10.596;2023-02-22T05:40:19;8.77;;;7.97;;
11046;SDS011;5576;50.008;10.596;2023-02-22T05:42:46;9.02;;;8.13;;
11046;SDS011;5576;50.008;10.596;2023-02-22T05:45:13;8.23;;;7.43;;
11046;SDS011;5576;50.008;10.596;2023-02-22T05:47:41;8.70;;;7.40;;
11046;SDS011;5576;50.008;10.596;2023-02-22T05:50:07;8.45;;;7.65;;
11046;SDS011;5576;50.008;10.596;2023-02-22T05:52:33;8.30;;;7.50;;
11046;SDS011;5576;50.008;10.596;2023-02-22T05:54:59;7.30;;;6.53;;
11046;SDS011;5576;50.008;10.596;2023-02-22T05:57:25;7.57;;;6.88;;
11046;SDS011;5576;50.008;10.596;2023-02-22T05:59:50;7.67;;;6.87;;
11046;SDS011;5576;50.008;10.596;2023-02-22T06:02:16;8.95;;;8.05;;
11046;SDS011;5576;50.008;10.596;2023-02-22T06:04:43;12.30;;;10.00;;
11046;SDS011;5576;50.008;10.596;2023-02-22T06:07:10;11.77;;;10.57;;
11046;SDS011;5576;50.008;10.596;2023-02-22T06:09:36;13.07;;;10.38;;
11046;SDS011;5576;50.008;10.596;2023-02-22T06:12:02;12.57;;;11.27;;
11046;SDS011;5576;50.008;10.596;2023-02-22T06:14:27;14.20;;;11.60;;
11046;SDS011;5576;50.008;10.596;2023-02-22T06:16:54;12.17;;;10.97;;
11046;SDS011;5576;50.008;10.596;2023-02-22T06:19:20;13.50;;;11.98;;
11046;SDS011;5576;50.008;10.596;2023-02-22T06:21:49;13.20;;;11.82;;
11046;SDS011;5576;50.008;10.596;2023-02-22T06:24:15;14.18;;;12.55;;
11046;SDS011;5576;50.008;10.596;2023-02-22T06:26:40;13.50;;;12.10;;
11046;SDS011;5576;50.008;10.596;2023-02-22T06:29:06;15.10;;;13.47;;
11046;SDS011;5576;50.008;10.596;2023-02-22T06:31:32;15.83;;;14.17;;
11046;SDS011;5576;50.008;10.596;2023-02-22T06:33:58;15.20;;;13.43;;
11046;SDS011;5576;50.008;10.596;2023-02-22T06:36:24;16.55;;;13.73;;
11046;SDS011;5576;50.008;10.596;2023-02-22T06:38:50;16.90;;;14.40;;
11046;SDS011;5576;50.008;10.596;2023-02-22T06:41:15;16.67;;;14.93;;
11046;SDS011;5576;50.008;10.596;2023-02-22T06:43:41;17.33;;;14.87;;
11046;SDS011;5576;50.008;10.596;2023-02-22T06:46:08;17.83;;;15.07;;
11046;SDS011;5576;50.008;10.596;2023-02-22T06:48:36;16.85;;;14.85;;
11046;SDS011;5576;50.008;10.596;2023-02-22T06:51:03;16.60;;;14.80;;
11046;SDS011;5576;50.008;10.596;2023-02-22T06:53:29;16.27;;;14.57;;
11046;SDS011;5576;50.008;10.596;2023-02-22T06:55:55;23.80;;;19.67;;
11046;SDS011;5576;50.008;10.596;2023-02-22T06:58:20;22.35;;;18.73;;
11046;SDS011;5576;50.008;10.596;2023-02-22T07:00:46;20.83;;;17.37;;
11046;SDS011;5576;50.008;10.596;2023-02-22T07:03:12;18.58;;;15.23;;
11046;SDS011;5576;50.008;10.596;2023-02-22T07:05:38;19.77;;;16.10;;
11046;SDS011;5576;50.008;10.596;2023-02-22T07:08:04;18.83;;;16.40;;
11046;SDS011;5576;50.008;10.596;2023-02-22T07:10:32;17.95;;;14.82;;
11046;SDS011;5576;50.008;10.596;2023-02-22T07:12:59;19.10;;;14.77;;
11046;SDS011;5576;50.008;10.596;2023-02-22T07:15:26;18.83;;;15.57;;
11046;SDS011;5576;50.008;10.596;2023-02-22T07:17:54;21.17;;;15.30;;
11046;SDS011;5576;50.008;10.596;2023-02-22T07:20:21;19.67;;;15.60;;
11046;SDS011;5576;50.008;10.596;2023-02-22T07:22:48;22.02;;;16.60;;
11046;SDS011;5576;50.008;10.596;2023-02-22T07:25:14;19.67;;;15.85;;
11046;SDS011;5576;50.008;10.596;2023-02-22T07:27:41;20.33;;;17.25;;
11046;SDS011;5576;50.008;10.596;2023-02-22T07:30:07;20.02;;;16.08;;
11046;SDS011;5576;50.008;10.596;2023-02-22T07:32:42;19.10;;;15.18;;
11046;SDS011;5576;50.008;10.596;2023-02-22T07:35:16;19.67;;;15.13;;
11046;SDS011;5576;50.008;10.596;2023-02-22T07:37:45;16.55;;;14.48;;
11046;SDS011;5576;50.008;10.596;2023-02-22T07:40:12;16.30;;;13.23;;
11046;SDS011;5576;50.008;10.596;2023-02-22T07:45:29;16.58;;;14.75;;
11046;SDS011;5576;50.008;10.596;2023-02-22T07:47:55;16.83;;;15.07;;
11046;SDS011;5576;50.008;10.596;2023-02-22T07:50:22;15.97;;;14.27;;
11046;SDS011;5576;50.008;10.596;2023-02-22T07:52:49;15.68;;;14.07;;
11046;SDS011;5576;50.008;10.596;2023-02-22T07:55:18;14.10;;;12.70;;
11046;SDS011;5576;50.008;10.596;2023-02-22T07:57:45;14.90;;;13.40;;
11046;SDS011;5576;50.008;10.596;2023-02-22T08:00:12;14.77;;;13.27;;
11046;SDS011;5576;50.008;10.596;2023-02-22T08:02:41;16.07;;;14.37;;
11046;SDS011;5576;50.008;10.596;2023-02-22T08:05:07;16.90;;;14.77;;
11046;SDS011;5576;50.008;10.596;2023-02-22T08:07:36;16.60;;;14.90;;
11046;SDS011;5576;50.008;10.596;2023-02-22T08:10:03;16.50;;;14.70;;
11046;SDS011;5576;50.008;10.596;2023-02-22T08:12:31;17.33;;;15.13;;
11046;SDS011;5576;50.008;10.596;2023-02-22T08:14:58;18.77;;;15.63;;
11046;SDS011;5576;50.008;10.596;2023-02-22T08:17:23;16.15;;;14.45;;
11046;SDS011;5576;50.008;10.596;2023-02-22T08:19:49;17.97;;;15.20;;
11046;SDS011;5576;50.008;10.596;2023-02-22T08:22:15;16.40;;;14.60;;
11046;SDS011;5576;50.008;10.596;2023-02-22T08:24:41;18.33;;;14.70;;
11046;SDS011;5576;50.008;10.596;2023-02-22T08:27:06;20.03;;;17.07;;
11046;SDS011;5576;50.008;10.596;2023-02-22T08:29:32;17.88;;;15.93;;
11046;SDS011;5576;50.008;10.596;2023-02-22T08:31:58;17.00;;;15.20;;
11046;SDS011;5576;50.008;10.596;2023-02-22T08:34:25;16.75;;;15.02;;
11046;SDS011;5576;50.008;10.596;2023-02-22T08:36:51;21.65;;;18.05;;
11046;SDS011;5576;50.008;10.596;2023-02-22T08:39:17;27.75;;;20.92;;
11046;SDS011;5576;50.008;10.596;2023-02-22T08:41:43;30.80;;;23.13;;
11046;SDS011;5576;50.008;10.596;2023-02-22T08:44:09;33.73;;;25.63;;
11046;SDS011;5576;50.008;10.596;2023-02-22T08:46:34;23.42;;;20.52;;
11046;SDS011;5576;50.008;10.596;2023-02-22T08:49:00;22.33;;;19.97;;
11046;SDS011;5576;50.008;10.596;2023-02-22T08:51:27;18.05;;;16.15;;
11046;SDS011;5576;50.008;10.596;2023-02-22T08:53:53;16.95;;;15.15;;
11046;SDS011;5576;50.008;10.596;2023-02-22T08:56:19;16.98;;;15.20;;
11046;SDS011;5576;50.008;10.596;2023-02-22T08:58:45;17.03;;;15.23;;
11046;SDS011;5576;50.008;10.596;2023-02-22T09:01:10;16.08;;;14.40;;
11046;SDS011;5576;50.008;10.596;2023-02-22T09:03:36;14.10;;;12.70;;
11046;SDS011;5576;50.008;10.596;2023-02-22T09:06:02;15.10;;;13.57;;
11046;SDS011;5576;50.008;10.596;2023-02-22T09:08:30;20.52;;;18.40;;
11046;SDS011;5576;50.008;10.596;2023-02-22T09:10:56;14.77;;;13.27;;
11046;SDS011;5576;50.008;10.596;2023-02-22T09:13:21;14.05;;;12.65;;
11046;SDS011;5576;50.008;10.596;2023-02-22T09:15:47;13.57;;;12.27;;
11046;SDS011;5576;50.008;10.596;2023-02-22T09:18:13;13.07;;;11.77;;
11046;SDS011;5576;50.008;10.596;2023-02-22T09:20:39;12.57;;;11.38;;
11046;SDS011;5576;50.008;10.596;2023-02-22T09:23:06;11.68;;;10.52;;
11046;SDS011;5576;50.008;10.596;2023-02-22T09:25:33;12.43;;;11.23;;
11046;SDS011;5576;50.008;10.596;2023-02-22T09:28:00;12.30;;;11.10;;
11046;SDS011;5576;50.008;10.596;2023-02-22T09:30:27;13.10;;;11.80;;
11046;SDS011;5576;50.008;10.596;2023-02-22T09:32:59;12.27;;;11.07;;
11046;SDS011;5576;50.008;10.596;2023-02-22T09:35:26;12.07;;;10.95;;
11046;SDS011;5576;50.008;10.596;2023-02-22T09:37:53;11.57;;;10.38;;
11046;SDS011;5576;50.008;10.596;2023-02-22T09:40:20;11.02;;;9.93;;
11046;SDS011;5576;50.008;10.596;2023-02-22T09:45:47;10.63;;;9.63;;
11046;SDS011;5576;50.008;10.596;2023-02-22T09:48:17;10.20;;;9.30;;
11046;SDS011;5576;50.008;10.596;2023-02-22T09:50:44;9.95;;;9.00;;
11046;SDS011;5576;50.008;10.596;2023-02-22T09:53:18;10.48;;;9.48;;
11046;SDS011;5576;50.008;10.596;2023-02-22T09:55:54;10.45;;;9.45;;
11046;SDS011;5576;50.008;10.596;2023-02-22T09:58:32;9.60;;;8.70;;
11046;SDS011;5576;50.008;10.596;2023-02-22T10:01:18;8.52;;;7.82;;
11046;SDS011;5576;50.008;10.596;2023-02-22T10:06:25;8.40;;;7.70;;
11046;SDS011;5576;50.008;10.596;2023-02-22T10:08:51;7.82;;;7.13;;
11046;SDS011;5576;50.008;10.596;2023-02-22T10:11:40;8.07;;;7.27;;
11046;SDS011;5576;50.008;10.596;2023-02-22T10:19:06;9.23;;;8.33;;
11046;SDS011;5576;50.008;10.596;2023-02-22T10:27:31;9.40;;;8.50;;
11046;SDS011;5576;50.008;10.596;2023-02-22T10:30:04;8.40;;;7.60;;
11046;SDS011;5576;50.008;10.596;2023-02-22T10:32:56;7.82;;;7.00;;
11046;SDS011;5576;50.008;10.596;2023-02-22T10:35:36;6.57;;;5.97;;
11046;SDS011;5576;50.008;10.596;2023-02-22T10:40:55;7.03;;;6.32;;
11046;SDS011;5576;50.008;10.596;2023-02-22T10:43:42;7.40;;;6.68;;
11046;SDS011;5576;50.008;10.596;2023-02-22T10:46:10;7.95;;;7.15;;
11046;SDS011;5576;50.008;10.596;2023-02-22T10:48:41;7.68;;;6.20;;
11046;SDS011;5576;50.008;10.596;2023-02-22T10:51:11;7.10;;;6.10;;
11046;SDS011;5576;50.008;10.596;2023-02-22T10:53:37;6.70;;;6.00;;
11046;SDS011;5576;50.008;10.596;2023-02-22T10:56:07;6.40;;;5.70;;
11046;SDS011;5576;50.008;10.596;2023-02-22T11:03:55;6.15;;;5.55;;
11046;SDS011;5576;50.008;10.596;2023-02-22T11:06:22;5.80;;;5.25;;
11046;SDS011;5576;50.008;10.596;2023-02-22T11:08:48;6.63;;;5.75;;
11046;SDS011;5576;50.008;10.596;2023-02-22T11:11:20;6.70;;;6.00;;
11046;SDS011;5576;50.008;10.596;2023-02-22T11:13:53;6.32;;;5.40;;
11046;SDS011;5576;50.008;10.596;2023-02-22T11:16:29;5.47;;;4.90;;
11046;SDS011;5576;50.008;10.596;2023-02-22T11:19:01;5.90;;;5.33;;
11046;SDS011;5576;50.008;10.596;2023-02-22T11:21:31;7.35;;;5.70;;
11046;SDS011;5576;50.008;10.596;2023-02-22T11:24:02;6.03;;;5.00;;
11046;SDS011;5576;50.008;10.596;2023-02-22T11:26:35;5.65;;;5.15;;
11046;SDS011;5576;50.008;10.596;2023-02-22T11:29:23;6.00;;;5.40;;
11046;SDS011;5576;50.008;10.596;2023-02-22T11:32:00;5.47;;;4.97;;
11046;SDS011;5576;50.008;10.596;2023-02-22T11:34:47;5.55;;;5.05;;
11046;SDS011;5576;50.008;10.596;2023-02-22T11:40:04;6.90;;;6.10;;
11046;SDS011;5576;50.008;10.596;2023-02-22T11:42:36;7.00;;;6.00;;
11046;SDS011;5576;50.008;10.596;2023-02-22T11:45:19;7.05;;;6.35;;
11046;SDS011;5576;50.008;10.596;2023-02-22T11:50:21;6.15;;;5.35;;
11046;SDS011;5576;50.008;10.596;2023-02-22T11:52:55;6.15;;;5.55;;
11046;SDS011;5576;50.008;10.596;2023-02-22T11:55:31;8.10;;;6.57;;
11046;SDS011;5576;50.008;10.596;2023-02-22T11:58:08;6.97;;;6.18;;
11046;SDS011;5576;50.008;10.596;2023-02-22T12:01:07;6.47;;;5.87;;
11046;SDS011;5576;50.008;10.596;2023-02-22T12:14:22;6.07;;;5.47;;
11046;SDS011;5576;50.008;10.596;2023-02-22T12:19:43;6.40;;;5.00;;
11046;SDS011;5576;50.008;10.596;2023-02-22T12:22:22;6.38;;;5.47;;
11046;SDS011;5576;50.008;10.596;2023-02-22T12:27:45;5.90;;;5.15;;
11046;SDS011;5576;50.008;10.596;2023-02-22T12:30:21;5.40;;;4.73;;
11046;SDS011;5576;50.008;10.596;2023-02-22T12:32:51;6.30;;;4.87;;
11046;SDS011;5576;50.008;10.596;2023-02-22T12:35:21;4.70;;;4.30;;
11046;SDS011;5576;50.008;10.596;2023-02-22T12:40:29;6.15;;;4.80;;
11046;SDS011;5576;50.008;10.596;2023-02-22T12:43:07;5.57;;;4.85;;
11046;SDS011;5576;50.008;10.596;2023-02-22T12:54:06;5.95;;;4.70;;
11046;SDS011;5576;50.008;10.596;2023-02-22T12:56:37;5.30;;;4.77;;
11046;SDS011;5576;50.008;10.596;2023-02-22T12:59:11;6.53;;;5.05;;
11046;SDS011;5576;50.008;10.596;2023-02-22T13:01:57;5.70;;;4.67;;
11046;SDS011;5576;50.008;10.596;2023-02-22T13:04:28;11.27;;;7.50;;
11046;SDS011;5576;50.008;10.596;2023-02-22T13:09:53;5.53;;;4.63;;
11046;SDS011;5576;50.008;10.596;2023-02-22T13:12:40;5.63;;;4.80;;
11046;SDS011;5576;50.008;10.596;2023-02-22T13:20:51;5.30;;;4.47;;
11046;SDS011;5576;50.008;10.596;2023-02-22T13:23:26;5.68;;;4.60;;
11046;SDS011;5576;50.008;10.596;2023-02-22T13:26:20;6.40;;;5.40;;
11046;SDS011;5576;50.008;10.596;2023-02-22T13:29:09;5.07;;;4.57;;
11046;SDS011;5576;50.008;10.596;2023-02-22T13:37:17;4.82;;;4.20;;
11046;SDS011;5576;50.008;10.596;2023-02-22T13:46:00;5.38;;;4.78;;
11046;SDS011;5576;50.008;10.596;2023-02-22T13:53:53;4.20;;;3.72;;
11046;SDS011;5576;50.008;10.596;2023-02-22T13:56:22;4.70;;;4.22;;
11046;SDS011;5576;50.008;10.596;2023-02-22T13:58:50;5.75;;;4.10;;
11046;SDS011;5576;50.008;10.596;2023-02-22T14:06:52;4.65;;;4.22;;
11046;SDS011;5576;50.008;10.596;2023-02-22T14:12:31;5.68;;;4.55;;
11046;SDS011;5576;50.008;10.596;2023-02-22T14:15:13;5.37;;;4.50;;
11046;SDS011;5576;50.008;10.596;2023-02-22T14:17:42;5.05;;;4.55;;
11046;SDS011;5576;50.008;10.596;2023-02-22T14:22:40;9.45;;;5.80;;
11046;SDS011;5576;50.008;10.596;2023-02-22T14:27:53;10.68;;;7.60;;
11046;SDS011;5576;50.008;10.596;2023-02-22T14:30:27;11.68;;;8.52;;
11046;SDS011;5576;50.008;10.596;2023-02-22T14:32:56;10.27;;;7.85;;
11046;SDS011;5576;50.008;10.596;2023-02-22T14:35:24;9.65;;;6.43;;
11046;SDS011;5576;50.008;10.596;2023-02-22T14:38:05;7.00;;;5.40;;
11046;SDS011;5576;50.008;10.596;2023-02-22T14:40:42;15.50;;;10.88;;
11046;SDS011;5576;50.008;10.596;2023-02-22T14:43:15;7.57;;;6.05;;
11046;SDS011;5576;50.008;10.596;2023-02-22T14:45:49;7.70;;;5.67;;
11046;SDS011;5576;50.008;10.596;2023-02-22T14:50:50;6.82;;;5.13;;
11046;SDS011;5576;50.008;10.596;2023-02-22T14:53:22;8.40;;;6.57;;
11046;SDS011;5576;50.008;10.596;2023-02-22T14:55:55;9.23;;;6.68;;
11046;SDS011;5576;50.008;10.596;2023-02-22T14:58:43;6.75;;;5.40;;
11046;SDS011;5576;50.008;10.596;2023-02-22T15:01:22;7.03;;;5.90;;
11046;SDS011;5576;50.008;10.596;2023-02-22T15:03:54;5.68;;;4.95;;
11046;SDS011;5576;50.008;10.596;2023-02-22T15:06:24;9.60;;;6.63;;
11046;SDS011;5576;50.008;10.596;2023-02-22T15:11:48;8.63;;;6.73;;
11046;SDS011;5576;50.008;10.596;2023-02-22T15:14:21;9.57;;;7.65;;
11046;SDS011;5576;50.008;10.596;2023-02-22T15:16:51;7.90;;;6.10;;
11046;SDS011;5576;50.008;10.596;2023-02-22T15:19:23;6.10;;;5.15;;
11046;SDS011;5576;50.008;10.596;2023-02-22T15:21:55;6.10;;;5.13;;
11046;SDS011;5576;50.008;10.596;2023-02-22T15:24:24;6.22;;;5.20;;
11046;SDS011;5576;50.008;10.596;2023-02-22T15:26:53;6.53;;;4.90;;
11046;SDS011;5576;50.008;10.596;2023-02-22T15:29:21;6.18;;;5.30;;
11046;SDS011;5576;50.008;10.596;2023-02-22T15:32:00;5.25;;;4.75;;
11046;SDS011;5576;50.008;10.596;2023-02-22T15:34:29;5.73;;;5.23;;
11046;SDS011;5576;50.008;10.596;2023-02-22T15:36:57;5.95;;;5.13;;
11046;SDS011;5576;50.008;10.596;2023-02-22T15:39:43;6.40;;;5.53;;
11046;SDS011;5576;50.008;10.596;2023-02-22T15:42:11;7.83;;;5.77;;
11046;SDS011;5576;50.008;10.596;2023-02-22T15:44:45;6.20;;;5.18;;
11046;SDS011;5576;50.008;10.596;2023-02-22T15:47:28;7.38;;;5.88;;
11046;SDS011;5576;50.008;10.596;2023-02-22T15:52:47;7.47;;;6.05;;
11046;SDS011;5576;50.008;10.596;2023-02-22T15:55:18;7.88;;;5.93;;
11046;SDS011;5576;50.008;10.596;2023-02-22T15:57:47;7.57;;;6.60;;
11046;SDS011;5576;50.008;10.596;2023-02-22T16:00:22;7.05;;;6.35;;
11046;SDS011;5576;50.008;10.596;2023-02-22T16:02:57;7.20;;;6.28;;
11046;SDS011;5576;50.008;10.596;2023-02-22T16:05:27;7.40;;;6.18;;
11046;SDS011;5576;50.008;10.596;2023-02-22T16:07:58;9.33;;;6.30;;
11046;SDS011;5576;50.008;10.596;2023-02-22T16:10:31;8.35;;;6.30;;
11046;SDS011;5576;50.008;10.596;2023-02-22T16:13:02;9.57;;;7.50;;
11046;SDS011;5576;50.008;10.596;2023-02-22T16:15:30;11.18;;;7.95;;
11046;SDS011;5576;50.008;10.596;2023-02-22T16:17:57;9.88;;;8.30;;
11046;SDS011;5576;50.008;10.596;2023-02-22T16:20:41;10.40;;;8.10;;
11046;SDS011;5576;50.008;10.596;2023-02-22T16:23:25;11.43;;;9.02;;
11046;SDS011;5576;50.008;10.596;2023-02-22T16:26:01;10.90;;;8.13;;
11046;SDS011;5576;50.008;10.596;2023-02-22T16:28:29;9.93;;;7.80;;
11046;SDS011;5576;50.008;10.596;2023-02-22T16:30:58;11.40;;;7.30;;
11046;SDS011;5576;50.008;10.596;2023-02-22T16:33:24;9.63;;;7.40;;
11046;SDS011;5576;50.008;10.596;2023-02-22T16:35:54;9.70;;;7.00;;
11046;SDS011;5576;50.008;10.596;2023-02-22T16:38:21;11.95;;;9.32;;
11046;SDS011;5576;50.008;10.596;2023-02-22T16:40:50;15.95;;;13.77;;
11046;SDS011;5576;50.008;10.596;2023-02-22T16:43:20;21.15;;;18.95;;
11046;SDS011;5576;50.008;10.596;2023-02-22T16:45:48;22.20;;;19.80;;
11046;SDS011;5576;50.008;10.596;2023-02-22T16:48:15;29.33;;;25.83;;
11046;SDS011;5576;50.008;10.596;2023-02-22T16:50:44;16.38;;;14.73;;
11046;SDS011;5576;50.008;10.596;2023-02-22T16:53:11;12.70;;;11.32;;
11046;SDS011;5576;50.008;10.596;2023-02-22T16:55:37;9.10;;;6.60;;
11046;SDS011;5576;50.008;10.596;2023-02-22T16:58:08;7.43;;;5.63;;
11046;SDS011;5576;50.008;10.596;2023-02-22T17:00:37;6.15;;;5.53;;
11046;SDS011;5576;50.008;10.596;2023-02-22T17:03:08;6.38;;;5.00;;
11046;SDS011;5576;50.008;10.596;2023-02-22T17:05:38;4.97;;;4.25;;
11046;SDS011;5576;50.008;10.596;2023-02-22T17:08:04;4.30;;;3.87;;
11046;SDS011;5576;50.008;10.596;2023-02-22T17:10:31;4.40;;;3.85;;
11046;SDS011;5576;50.008;10.596;2023-02-22T17:12:59;5.63;;;4.25;;
11046;SDS011;5576;50.008;10.596;2023-02-22T17:15:27;5.20;;;4.70;;